createdAt,value
2023-04-16T00:01:40.334Z,23.10
2023-04-16T00:04:08.240Z,22.40
2023-04-16T00:06:36.575Z,25.90
2023-04-16T00:09:04.467Z,22.80
2023-04-16T00:11:32.227Z,26.20
2023-04-16T00:14:00.070Z,25.70
2023-04-16T00:16:28.146Z,24.90
2023-04-16T00:18:55.979Z,25.20
2023-04-16T00:21:23.756Z,23.90
2023-04-16T00:23:51.558Z,21.80
2023-04-16T00:26:19.662Z,26.90
2023-04-16T00:28:48.027Z,25.00
2023-04-16T00:31:16.119Z,19.80
2023-04-16T00:33:43.972Z,21.90
2023-04-16T00:36:11.677Z,19.50
2023-04-16T00:38:39.522Z,20.80
2023-04-16T00:41:07.248Z,20.90
2023-04-16T00:43:35.078Z,21.60
2023-04-16T00:46:05.834Z,19.30
2023-04-16T00:48:34.606Z,20.60
2023-04-16T00:51:04.996Z,17.90
2023-04-16T00:53:34.192Z,18.40
2023-04-16T00:56:06.339Z,16.30
2023-04-16T01:01:02.755Z,16.00
2023-04-16T01:03:43.405Z,20.70
2023-04-16T01:06:11.775Z,20.60
2023-04-16T01:08:40.173Z,20.20
2023-04-16T01:11:08.235Z,18.50
2023-04-16T01:13:39.368Z,19.30
2023-04-16T01:16:08.932Z,18.50
2023-04-16T01:18:37.545Z,18.90
2023-04-16T01:21:05.609Z,22.60
2023-04-16T01:23:34.254Z,20.80
2023-04-16T01:26:03.454Z,20.70
2023-04-16T01:28:31.355Z,19.40
2023-04-16T01:30:59.130Z,16.50
2023-04-16T01:33:56.500Z,19.60
2023-04-16T01:36:24.651Z,17.90
2023-04-16T01:38:52.402Z,17.20
2023-04-16T01:41:20.324Z,21.10
2023-04-16T01:43:48.109Z,20.90
2023-04-16T01:46:20.578Z,24.10
2023-04-16T01:48:48.995Z,19.70
2023-04-16T01:51:16.857Z,20.00
2023-04-16T01:53:45.839Z,22.90
2023-04-16T01:56:13.848Z,18.40
2023-04-16T01:58:47.126Z,24.50
2023-04-16T02:01:16.176Z,20.10
2023-04-16T02:03:45.335Z,21.20
2023-04-16T02:06:13.721Z,22.90
2023-04-16T02:08:41.927Z,22.50
2023-04-16T02:11:09.663Z,22.70
2023-04-16T02:13:37.565Z,19.20
2023-04-16T02:16:06.239Z,19.30
2023-04-16T02:18:57.435Z,25.00
2023-04-16T02:21:26.089Z,20.10
2023-04-16T02:23:53.853Z,19.10
2023-04-16T02:26:26.657Z,25.80
2023-04-16T02:28:55.285Z,22.10
2023-04-16T02:31:25.640Z,20.10
2023-04-16T02:33:53.428Z,21.90
2023-04-16T02:36:21.728Z,20.20
2023-04-16T02:38:49.512Z,21.60
2023-04-16T02:41:17.400Z,23.90
2023-04-16T02:43:45.389Z,23.30
2023-04-16T02:46:13.262Z,21.70
2023-04-16T02:48:41.725Z,22.70
2023-04-16T02:51:09.548Z,21.40
2023-04-16T02:53:37.485Z,21.90
2023-04-16T02:56:05.988Z,20.40
2023-04-16T02:58:33.783Z,25.20
2023-04-16T03:01:01.965Z,21.20
2023-04-16T03:03:29.919Z,25.40
2023-04-16T03:05:57.665Z,25.40
2023-04-16T03:08:25.925Z,23.60
2023-04-16T03:10:54.112Z,26.60
2023-04-16T03:13:21.859Z,26.40
2023-04-16T03:15:50.101Z,23.60
2023-04-16T03:18:17.950Z,26.00
2023-04-16T03:20:45.849Z,24.40
2023-04-16T03:23:13.669Z,22.70
2023-04-16T03:25:41.629Z,22.20
2023-04-16T03:28:09.936Z,26.60
2023-04-16T03:30:38.982Z,23.00
2023-04-16T03:33:07.108Z,23.30
2023-04-16T03:35:36.018Z,21.70
2023-04-16T03:38:04.160Z,26.10
2023-04-16T03:40:32.212Z,21.00
2023-04-16T03:43:00.495Z,21.00
2023-04-16T03:45:29.660Z,22.80
2023-04-16T03:47:57.815Z,21.00
2023-04-16T03:50:26.613Z,22.60
2023-04-16T03:52:54.537Z,21.00
2023-04-16T03:55:22.308Z,20.50
2023-04-16T03:57:50.142Z,19.90
2023-04-16T04:00:18.505Z,22.50
2023-04-16T04:02:56.188Z,18.80
2023-04-16T04:05:24.690Z,20.70
2023-04-16T04:07:52.812Z,20.40
2023-04-16T04:10:20.576Z,21.80
2023-04-16T04:12:48.361Z,19.60
2023-04-16T04:15:16.359Z,19.30
2023-04-16T04:17:44.265Z,20.60
2023-04-16T04:20:12.509Z,19.70
2023-04-16T04:22:43.454Z,29.80
2023-04-16T04:25:12.831Z,28.60
2023-04-16T04:27:40.851Z,25.90
2023-04-16T04:30:09.855Z,25.00
2023-04-16T04:32:38.039Z,23.20
2023-04-16T04:35:06.643Z,19.70
2023-04-16T04:37:34.933Z,21.90
2023-04-16T04:40:09.682Z,20.10
2023-04-16T04:42:38.104Z,16.30
2023-04-16T04:45:06.867Z,17.70
2023-04-16T04:47:35.160Z,20.40
2023-04-16T04:50:02.888Z,24.70
2023-04-16T04:52:31.281Z,18.90
2023-04-16T04:54:59.026Z,19.70
2023-04-16T04:57:26.772Z,19.10
2023-04-16T04:59:55.467Z,20.40
2023-04-16T05:02:23.859Z,19.40
2023-04-16T05:04:51.726Z,16.70
2023-04-16T05:07:19.675Z,19.70
2023-04-16T05:09:47.426Z,19.60
2023-04-16T05:12:15.248Z,18.70
2023-04-16T05:14:43.101Z,17.70
2023-04-16T05:17:11.066Z,17.80
2023-04-16T05:19:38.823Z,18.70
2023-04-16T05:22:06.740Z,17.00
2023-04-16T05:24:34.651Z,20.40
2023-04-16T05:27:02.398Z,16.30
2023-04-16T05:29:30.113Z,18.80
2023-04-16T05:31:58.065Z,17.30
2023-04-16T05:34:26.293Z,19.00
2023-04-16T05:36:54.277Z,18.80
2023-04-16T05:39:22.423Z,19.20
2023-04-16T05:41:50.365Z,19.60
2023-04-16T05:44:18.265Z,25.80
2023-04-16T05:46:46.299Z,21.40
2023-04-16T05:49:14.387Z,25.20
2023-04-16T05:51:42.361Z,30.50
2023-04-16T05:54:10.417Z,22.40
2023-04-16T05:56:38.603Z,20.00
2023-04-16T05:59:06.556Z,18.30
2023-04-16T06:01:34.514Z,22.60
2023-04-16T06:04:02.624Z,18.70
2023-04-16T06:06:30.861Z,27.40
2023-04-16T06:08:58.956Z,24.70
2023-04-16T06:11:27.624Z,26.10
2023-04-16T06:13:55.535Z,24.40
2023-04-16T06:16:23.527Z,22.00
2023-04-16T06:18:51.366Z,21.40
2023-04-16T06:21:19.291Z,23.00
2023-04-16T06:23:47.774Z,18.60
2023-04-16T06:26:16.061Z,21.50
2023-04-16T06:28:44.059Z,21.20
2023-04-16T06:31:12.023Z,19.60
2023-04-16T06:33:39.970Z,21.20
2023-04-16T06:36:07.772Z,22.90
2023-04-16T06:38:36.357Z,20.20
2023-04-16T06:41:04.594Z,19.40
2023-04-16T06:43:33.904Z,18.20
2023-04-16T06:46:01.742Z,17.30
2023-04-16T06:48:30.069Z,18.20
2023-04-16T06:50:57.978Z,17.40
2023-04-16T06:53:26.127Z,19.70
2023-04-16T06:55:54.233Z,22.70
2023-04-16T06:58:22.496Z,20.30
2023-04-16T07:00:50.513Z,19.60
2023-04-16T07:03:18.923Z,19.30
2023-04-16T07:05:47.189Z,23.10
2023-04-16T07:08:15.602Z,22.50
2023-04-16T07:10:43.983Z,19.80
2023-04-16T07:13:11.779Z,17.90
2023-04-16T07:15:39.883Z,22.40
2023-04-16T07:18:07.731Z,25.30
2023-04-16T07:20:36.513Z,21.30
2023-04-16T07:23:07.331Z,21.80
2023-04-16T07:25:35.213Z,21.00
2023-04-16T07:28:03.942Z,24.70
2023-04-16T07:30:34.776Z,23.50
2023-04-16T07:33:06.134Z,23.30
2023-04-16T07:35:34.211Z,23.10
2023-04-16T07:38:02.156Z,25.70
2023-04-16T07:40:30.069Z,25.60
2023-04-16T07:42:57.966Z,24.20
2023-04-16T07:45:25.953Z,25.10
2023-04-16T07:47:54.065Z,26.90
2023-04-16T07:50:22.731Z,27.90
2023-04-16T07:52:50.828Z,25.00
2023-04-16T07:55:18.719Z,24.70
2023-04-16T07:57:46.615Z,25.00
2023-04-16T13:02:56.264Z,2.10
2023-04-16T13:05:23.196Z,2.80
2023-04-16T13:07:49.670Z,2.60
2023-04-16T13:10:16.000Z,1.40
2023-04-16T13:12:42.398Z,1.60
2023-04-16T13:15:09.866Z,1.40
2023-04-16T13:17:36.432Z,1.80
2023-04-16T13:20:03.079Z,1.70
2023-04-16T13:22:29.824Z,1.30
2023-04-16T13:24:56.533Z,2.40
2023-04-16T13:27:23.191Z,1.70
2023-04-16T13:29:49.541Z,1.40
2023-04-16T13:32:16.663Z,1.70
2023-04-16T13:34:43.093Z,1.50
2023-04-16T13:37:09.555Z,1.60
2023-04-16T13:39:35.955Z,1.70
2023-04-16T13:42:02.320Z,1.40
2023-04-16T13:44:28.988Z,1.50
2023-04-16T13:46:56.117Z,1.60
2023-04-16T13:49:22.804Z,1.90
2023-04-16T13:51:49.206Z,2.50
2023-04-16T13:54:15.523Z,1.90
2023-04-16T13:56:41.886Z,2.10
2023-04-16T13:59:08.652Z,2.40
2023-04-16T14:01:35.395Z,1.40
2023-04-16T14:04:05.713Z,1.40
2023-04-16T14:06:33.446Z,1.00
2023-04-16T14:09:00.587Z,1.00
2023-04-16T14:11:27.091Z,1.70
2023-04-16T14:13:53.540Z,1.60
2023-04-16T14:16:20.223Z,2.30
2023-04-16T14:18:46.853Z,1.60
2023-04-16T14:21:13.206Z,1.40
2023-04-16T14:23:39.808Z,1.30
2023-04-16T14:26:06.247Z,1.60
2023-04-16T14:28:32.805Z,1.40
2023-04-16T14:30:59.134Z,1.70
2023-04-16T14:33:25.712Z,2.00
2023-04-16T14:35:52.236Z,1.80
2023-04-16T14:38:18.602Z,1.60
2023-04-16T14:40:45.041Z,1.60
2023-04-16T14:43:11.451Z,2.00
2023-04-16T14:45:38.331Z,1.60
2023-04-16T14:48:05.628Z,1.60
2023-04-16T14:50:37.173Z,2.40
2023-04-16T14:53:04.488Z,1.60
2023-04-16T14:55:31.530Z,1.60
2023-04-16T14:57:58.984Z,2.20
2023-04-16T15:00:25.606Z,2.00
2023-04-16T15:02:53.079Z,1.50
2023-04-16T15:05:19.732Z,2.00
2023-04-16T15:07:46.749Z,1.60
2023-04-16T15:10:13.518Z,2.00
2023-04-16T15:12:40.411Z,2.00
2023-04-16T15:15:07.856Z,2.00
2023-04-16T15:17:34.418Z,2.00
2023-04-16T15:20:00.984Z,1.60
2023-04-16T15:22:27.432Z,1.90
2023-04-16T15:24:53.818Z,1.50
2023-04-16T15:27:20.386Z,1.90
2023-04-16T15:29:48.773Z,1.50
2023-04-16T15:32:15.451Z,1.80
2023-04-16T15:34:42.817Z,1.60
2023-04-16T15:37:09.646Z,1.70
2023-04-16T15:39:35.998Z,2.00
2023-04-16T15:42:06.513Z,1.80
2023-04-16T15:44:34.156Z,1.60
2023-04-16T15:47:00.652Z,3.30
2023-04-16T15:49:27.093Z,2.50
2023-04-16T15:51:53.805Z,2.70
2023-04-16T15:54:21.407Z,3.80
2023-04-16T15:56:47.927Z,3.40
2023-04-16T15:59:14.319Z,3.00
2023-04-16T16:01:40.975Z,3.80
2023-04-16T16:04:08.321Z,3.00
2023-04-16T16:06:35.229Z,3.80
2023-04-16T16:09:01.975Z,3.80
2023-04-16T16:11:28.522Z,4.30
2023-04-16T16:13:54.863Z,3.70
2023-04-16T16:16:21.333Z,3.50
2023-04-16T16:18:48.149Z,4.30
2023-04-16T16:21:14.618Z,4.10
2023-04-16T16:23:41.346Z,4.00
2023-04-16T16:26:08.642Z,4.40
2023-04-16T16:28:37.153Z,3.80
2023-04-16T16:31:05.186Z,4.60
2023-04-16T16:33:31.560Z,4.00
2023-04-16T16:35:58.166Z,4.60
2023-04-16T16:38:25.239Z,4.60
2023-04-16T16:40:51.750Z,4.20
2023-04-16T16:43:18.144Z,4.10
2023-04-16T16:45:44.528Z,4.10
2023-04-16T16:48:10.984Z,3.90
2023-04-16T16:50:37.357Z,3.70
2023-04-16T16:53:03.827Z,6.00
2023-04-16T16:55:30.714Z,3.40
2023-04-16T16:57:58.286Z,3.80
2023-04-16T17:00:24.880Z,3.50
2023-04-16T17:02:51.595Z,5.20
2023-04-16T17:05:18.151Z,4.30
2023-04-16T17:07:45.098Z,5.90
2023-04-16T17:10:15.166Z,7.00
2023-04-16T17:12:41.949Z,7.60
2023-04-16T17:15:09.063Z,5.70
2023-04-16T17:17:35.784Z,5.80
2023-04-16T17:20:08.041Z,5.20
2023-04-16T17:22:35.285Z,5.70
2023-04-16T17:25:01.749Z,8.00
2023-04-16T17:27:28.789Z,6.40
2023-04-16T17:29:59.471Z,8.10
2023-04-16T17:32:26.211Z,6.50
2023-04-16T17:34:56.774Z,7.30
2023-04-16T17:37:23.331Z,6.80
2023-04-16T17:39:50.813Z,7.20
2023-04-16T17:42:17.345Z,8.10
2023-04-16T17:44:43.990Z,7.30
2023-04-16T17:47:11.156Z,8.30
2023-04-16T17:49:37.563Z,7.20
2023-04-16T17:52:04.420Z,7.90
2023-04-16T17:54:32.084Z,6.70
2023-04-16T17:56:58.698Z,8.90
2023-04-16T17:59:25.349Z,9.40
2023-04-16T18:01:51.975Z,8.80
2023-04-16T18:04:19.158Z,9.00
2023-04-16T18:06:45.995Z,8.40
2023-04-16T18:09:13.565Z,7.30
2023-04-16T18:11:39.979Z,7.20
2023-04-16T18:14:09.127Z,6.00
2023-04-16T18:16:35.616Z,5.50
2023-04-16T18:19:02.016Z,5.90
2023-04-16T18:21:29.908Z,7.20
2023-04-16T18:23:57.013Z,6.10
2023-04-16T18:26:25.395Z,7.20
2023-04-16T18:28:52.758Z,5.40
2023-04-16T18:31:21.373Z,5.90
2023-04-16T18:33:56.440Z,5.90
2023-04-16T18:36:23.968Z,6.10
2023-04-16T18:39:01.014Z,6.40
2023-04-16T18:41:29.197Z,5.80
2023-04-16T18:43:56.096Z,6.40
2023-04-16T18:46:22.552Z,6.40
2023-04-16T18:48:49.135Z,6.50
2023-04-16T18:51:16.283Z,7.20
2023-04-16T18:53:44.689Z,5.80
2023-04-16T18:56:11.333Z,8.20
2023-04-16T18:58:38.153Z,6.50
2023-04-16T19:01:09.918Z,7.50
2023-04-16T19:03:36.660Z,7.00
2023-04-16T19:06:03.985Z,6.40
2023-04-16T19:08:30.387Z,6.70
2023-04-16T19:10:57.013Z,8.10
2023-04-16T19:13:27.040Z,5.70
2023-04-16T19:15:59.036Z,5.40
2023-04-16T19:18:25.929Z,7.90
2023-04-16T19:20:58.795Z,6.20
2023-04-16T19:23:25.269Z,5.50
2023-04-16T19:25:51.700Z,7.10
2023-04-16T19:28:18.402Z,6.30
2023-04-16T19:30:45.976Z,7.60
2023-04-16T19:33:12.773Z,7.00
2023-04-16T19:35:42.218Z,5.80
2023-04-16T19:38:10.755Z,4.90
2023-04-16T19:40:37.714Z,5.50
2023-04-16T19:43:04.791Z,7.80
2023-04-16T19:45:31.377Z,5.20
2023-04-16T19:47:58.348Z,5.20
2023-04-16T19:50:24.964Z,6.10
2023-04-16T19:52:51.334Z,7.50
2023-04-16T19:55:18.394Z,5.70
2023-04-16T19:57:47.298Z,8.70
2023-04-16T20:00:14.290Z,10.20
2023-04-16T20:02:41.299Z,7.60
2023-04-16T20:05:11.721Z,8.00
2023-04-16T20:07:38.257Z,10.50
2023-04-16T20:10:05.088Z,10.90
2023-04-16T20:12:31.479Z,10.60
2023-04-16T20:14:58.146Z,11.90
2023-04-16T20:17:25.277Z,14.10
2023-04-16T20:19:51.639Z,10.20
2023-04-16T20:22:18.279Z,12.50
2023-04-16T20:24:47.772Z,12.60
2023-04-16T20:27:16.192Z,11.70
2023-04-16T20:29:42.499Z,11.40
2023-04-16T20:32:09.234Z,8.20
2023-04-16T20:34:37.337Z,8.20
2023-04-16T20:37:04.085Z,9.70
2023-04-16T20:39:33.523Z,9.20
2023-04-16T20:42:00.297Z,9.50
2023-04-16T20:44:32.473Z,10.30
2023-04-16T20:49:25.409Z,10.20
2023-04-16T20:51:51.759Z,11.20
2023-04-16T20:54:18.264Z,10.00
2023-04-16T20:56:46.993Z,9.30
2023-04-16T20:59:13.917Z,9.60
2023-04-16T21:01:40.393Z,10.40
2023-04-16T21:04:07.197Z,10.40
2023-04-16T21:06:37.626Z,11.80
2023-04-16T21:09:05.267Z,10.40
2023-04-16T21:11:33.670Z,9.30
2023-04-16T21:14:00.559Z,11.00
2023-04-16T21:16:27.092Z,9.50
2023-04-16T21:18:54.915Z,11.40
2023-04-16T21:21:21.675Z,11.70
2023-04-16T21:23:48.508Z,12.00
2023-04-16T21:26:16.264Z,12.70
2023-04-16T21:28:42.619Z,12.80
2023-04-16T21:31:09.049Z,11.70
2023-04-16T21:33:35.507Z,11.70
2023-04-16T21:36:02.009Z,13.70
2023-04-16T21:38:28.383Z,14.10
2023-04-16T21:40:55.169Z,12.60
2023-04-16T21:43:26.372Z,14.00
2023-04-16T21:45:52.905Z,13.00
2023-04-16T21:48:20.035Z,13.10
2023-04-16T21:50:46.550Z,13.80
2023-04-16T21:53:12.858Z,13.00
2023-04-16T21:55:39.973Z,15.10
2023-04-16T21:58:06.444Z,14.70
2023-04-16T22:00:33.129Z,14.20
2023-04-16T22:02:59.661Z,13.10
2023-04-16T22:05:26.230Z,16.00
2023-04-16T22:07:52.628Z,15.80
2023-04-16T22:10:19.113Z,16.30
2023-04-16T22:12:45.845Z,19.10
2023-04-16T22:15:13.031Z,16.80
2023-04-16T22:17:40.140Z,17.10
2023-04-16T22:20:12.520Z,15.50
2023-04-16T22:22:39.961Z,17.30
2023-04-16T22:25:06.918Z,17.20
2023-04-16T22:27:33.878Z,16.80
2023-04-16T22:30:00.998Z,15.60
2023-04-16T22:32:27.525Z,14.50
2023-04-16T22:34:54.017Z,15.50
2023-04-16T22:37:20.319Z,14.30
2023-04-16T22:39:46.780Z,13.90
2023-04-16T22:42:13.131Z,15.90
2023-04-16T22:44:39.780Z,14.40
2023-04-16T22:47:06.612Z,14.60
2023-04-16T22:49:33.404Z,14.00
2023-04-16T22:52:00.644Z,15.00
2023-04-16T22:54:28.491Z,17.30
2023-04-16T22:56:56.032Z,16.20
2023-04-16T22:59:22.592Z,15.70
2023-04-16T23:01:49.503Z,17.90
2023-04-16T23:04:15.946Z,14.80
2023-04-16T23:06:42.542Z,17.20
2023-04-16T23:09:09.581Z,16.50
2023-04-16T23:11:36.105Z,16.20
2023-04-16T23:14:03.793Z,16.30
2023-04-16T23:16:30.602Z,17.30
2023-04-16T23:18:56.938Z,14.80
2023-04-16T23:21:23.363Z,16.00
2023-04-16T23:23:49.930Z,15.40
2023-04-16T23:26:16.622Z,16.30
2023-04-16T23:28:42.954Z,17.50
2023-04-16T23:31:09.331Z,15.30
2023-04-16T23:33:35.986Z,18.50
2023-04-16T23:36:02.396Z,14.90
2023-04-16T23:38:29.219Z,16.40
2023-04-16T23:40:55.572Z,15.20
2023-04-16T23:43:22.595Z,18.90
2023-04-16T23:45:49.702Z,17.60
2023-04-16T23:48:16.192Z,16.40
2023-04-16T23:50:42.549Z,17.90
2023-04-16T23:53:08.987Z,15.30
2023-04-16T23:55:35.449Z,21.20
2023-04-16T23:58:01.913Z,17.50
